Terminal Aerodrome Forecast
Issued by NWS

Home | Current Version | Previous Version | Graphics & Text | Print | Product List | Glossary On
Versions: 1 2 3 4 5 6 7 8 9 10 11 12 13 14 15 16 17 18 19 20
000
FTUS43 KBIS 271400 AAC
TAFDIK
TAF AMD
KDIK 271406Z 2714/2812 27012KT P6SM OVC020
     FM271500 27022G31KT P6SM VCSH OVC020
     FM271900 29026G39KT P6SM VCSH SCT015 OVC025
     FM280100 30020G28KT 6SM BR VCSH OVC012
     FM280700 31016KT 6SM BR OVC010=

USA.gov is the U.S. government's official web portal to all federal, state and local government web resources and services.